sensor_id;sensor_type;location;lat;lon;timestamp;pressure;altitude;pressure_sealevel;temperature
74321;BMP280;62738;45.772;4.804;2022-12-07T00:01:42;99896.28;;;5.84
74321;BMP280;62738;45.772;4.804;2022-12-07T00:04:14;99895.84;;;5.80
74321;BMP280;62738;45.772;4.804;2022-12-07T00:06:43;99893.53;;;5.84
74321;BMP280;62738;45.772;4.804;2022-12-07T00:09:15;99890.47;;;5.87
74321;BMP280;62738;45.772;4.804;2022-12-07T00:11:42;99904.09;;;5.80
74321;BMP280;62738;45.772;4.804;2022-12-07T00:14:14;99890.44;;;5.55
74321;BMP280;62738;45.772;4.804;2022-12-07T00:16:42;99894.75;;;5.70
74321;BMP280;62738;45.772;4.804;2022-12-07T00:19:10;99889.88;;;5.76
74321;BMP280;62738;45.772;4.804;2022-12-07T00:21:37;99890.22;;;5.72
74321;BMP280;62738;45.772;4.804;2022-12-07T00:24:05;99881.63;;;5.76
74321;BMP280;62738;45.772;4.804;2022-12-07T00:26:37;99883.25;;;5.84
74321;BMP280;62738;45.772;4.804;2022-12-07T00:29:16;99876.97;;;5.71
74321;BMP280;62738;45.772;4.804;2022-12-07T00:31:43;99874.13;;;5.76
74321;BMP280;62738;45.772;4.804;2022-12-07T00:34:18;99865.84;;;6.08
74321;BMP280;62738;45.772;4.804;2022-12-07T00:36:45;99862.72;;;5.85
74321;BMP280;62738;45.772;4.804;2022-12-07T00:39:12;99863.94;;;5.71
74321;BMP280;62738;45.772;4.804;2022-12-07T00:41:39;99874.75;;;5.69
74321;BMP280;62738;45.772;4.804;2022-12-07T00:44:06;99867.34;;;5.77
74321;BMP280;62738;45.772;4.804;2022-12-07T00:46:32;99866.84;;;5.79
74321;BMP280;62738;45.772;4.804;2022-12-07T00:48:59;99869.00;;;5.99
74321;BMP280;62738;45.772;4.804;2022-12-07T00:51:26;99872.06;;;5.95
74321;BMP280;62738;45.772;4.804;2022-12-07T00:53:53;99873.50;;;5.83
74321;BMP280;62738;45.772;4.804;2022-12-07T00:56:24;99864.25;;;6.13
74321;BMP280;62738;45.772;4.804;2022-12-07T00:58:56;99867.53;;;5.98
74321;BMP280;62738;45.772;4.804;2022-12-07T01:01:25;99869.34;;;5.77
74321;BMP280;62738;45.772;4.804;2022-12-07T01:03:52;99870.75;;;5.83
74321;BMP280;62738;45.772;4.804;2022-12-07T01:06:20;99871.19;;;5.87
74321;BMP280;62738;45.772;4.804;2022-12-07T01:08:48;99870.53;;;5.81
74321;BMP280;62738;45.772;4.804;2022-12-07T01:11:17;99874.47;;;5.86
74321;BMP280;62738;45.772;4.804;2022-12-07T01:13:44;99875.28;;;5.81
74321;BMP280;62738;45.772;4.804;2022-12-07T01:16:15;99879.81;;;5.97
74321;BMP280;62738;45.772;4.804;2022-12-07T01:18:43;99869.47;;;5.71
74321;BMP280;62738;45.772;4.804;2022-12-07T01:21:15;99885.13;;;5.76
74321;BMP280;62738;45.772;4.804;2022-12-07T01:23:43;99878.66;;;5.74
74321;BMP280;62738;45.772;4.804;2022-12-07T01:26:12;99878.78;;;5.49
74321;BMP280;62738;45.772;4.804;2022-12-07T01:28:39;99879.19;;;5.53
74321;BMP280;62738;45.772;4.804;2022-12-07T01:31:08;99876.03;;;5.49
74321;BMP280;62738;45.772;4.804;2022-12-07T01:33:37;99880.91;;;5.56
74321;BMP280;62738;45.772;4.804;2022-12-07T01:36:16;99880.00;;;5.67
74321;BMP280;62738;45.772;4.804;2022-12-07T01:38:44;99879.84;;;5.59
74321;BMP280;62738;45.772;4.804;2022-12-07T01:41:11;99884.78;;;5.48
74321;BMP280;62738;45.772;4.804;2022-12-07T01:46:51;99885.00;;;5.69
74321;BMP280;62738;45.772;4.804;2022-12-07T01:51:56;99888.94;;;5.54
74321;BMP280;62738;45.772;4.804;2022-12-07T01:54:24;99884.72;;;5.72
74321;BMP280;62738;45.772;4.804;2022-12-07T01:56:53;99886.41;;;5.75
74321;BMP280;62738;45.772;4.804;2022-12-07T01:59:23;99888.63;;;5.58
74321;BMP280;62738;45.772;4.804;2022-12-07T02:04:52;99894.66;;;5.75
74321;BMP280;62738;45.772;4.804;2022-12-07T02:07:20;99886.72;;;5.53
74321;BMP280;62738;45.772;4.804;2022-12-07T02:09:47;99887.47;;;5.53
74321;BMP280;62738;45.772;4.804;2022-12-07T02:12:13;99888.44;;;5.37
74321;BMP280;62738;45.772;4.804;2022-12-07T02:14:41;99883.00;;;5.50
74321;BMP280;62738;45.772;4.804;2022-12-07T02:28:19;99886.66;;;5.40
74321;BMP280;62738;45.772;4.804;2022-12-07T02:30:49;99875.41;;;5.56
74321;BMP280;62738;45.772;4.804;2022-12-07T02:33:24;99874.88;;;5.58
74321;BMP280;62738;45.772;4.804;2022-12-07T02:35:59;99867.97;;;5.51
74321;BMP280;62738;45.772;4.804;2022-12-07T02:38:34;99853.56;;;5.45
74321;BMP280;62738;45.772;4.804;2022-12-07T02:41:10;99862.47;;;5.33
74321;BMP280;62738;45.772;4.804;2022-12-07T02:43:52;99861.38;;;5.41
74321;BMP280;62738;45.772;4.804;2022-12-07T02:46:29;99857.16;;;5.40
74321;BMP280;62738;45.772;4.804;2022-12-07T02:48:58;99861.53;;;5.49
74321;BMP280;62738;45.772;4.804;2022-12-07T02:51:30;99859.72;;;5.70
74321;BMP280;62738;45.772;4.804;2022-12-07T02:53:56;99856.16;;;5.38
74321;BMP280;62738;45.772;4.804;2022-12-07T03:05:15;99858.31;;;5.26
74321;BMP280;62738;45.772;4.804;2022-12-07T03:10:55;99864.13;;;5.22
74321;BMP280;62738;45.772;4.804;2022-12-07T03:16:45;99859.97;;;5.35
74321;BMP280;62738;45.772;4.804;2022-12-07T03:19:17;99856.47;;;5.34
74321;BMP280;62738;45.772;4.804;2022-12-07T03:21:49;99850.78;;;5.26
74321;BMP280;62738;45.772;4.804;2022-12-07T03:24:21;99853.19;;;5.17
74321;BMP280;62738;45.772;4.804;2022-12-07T03:26:52;99849.47;;;5.33
74321;BMP280;62738;45.772;4.804;2022-12-07T03:29:24;99856.69;;;5.36
74321;BMP280;62738;45.772;4.804;2022-12-07T03:31:59;99860.25;;;5.50
74321;BMP280;62738;45.772;4.804;2022-12-07T03:34:35;99856.53;;;5.47
74321;BMP280;62738;45.772;4.804;2022-12-07T03:37:18;99850.06;;;5.26
74321;BMP280;62738;45.772;4.804;2022-12-07T03:39:57;99853.34;;;5.24
74321;BMP280;62738;45.772;4.804;2022-12-07T03:42:27;99849.19;;;5.18
74321;BMP280;62738;45.772;4.804;2022-12-07T03:44:54;99850.28;;;5.09
74321;BMP280;62738;45.772;4.804;2022-12-07T03:50:26;99847.94;;;5.19
74321;BMP280;62738;45.772;4.804;2022-12-07T03:53:37;99843.31;;;5.08
74321;BMP280;62738;45.772;4.804;2022-12-07T03:56:08;99843.47;;;5.16
74321;BMP280;62738;45.772;4.804;2022-12-07T03:58:35;99839.38;;;5.04
74321;BMP280;62738;45.772;4.804;2022-12-07T04:01:02;99844.88;;;5.22
74321;BMP280;62738;45.772;4.804;2022-12-07T04:03:29;99843.19;;;5.19
74321;BMP280;62738;45.772;4.804;2022-12-07T04:05:56;99838.25;;;5.12
74321;BMP280;62738;45.772;4.804;2022-12-07T04:08:24;99841.75;;;5.13
74321;BMP280;62738;45.772;4.804;2022-12-07T04:10:51;99832.75;;;5.12
74321;BMP280;62738;45.772;4.804;2022-12-07T04:13:18;99834.38;;;5.21
74321;BMP280;62738;45.772;4.804;2022-12-07T04:15:44;99834.69;;;5.36
74321;BMP280;62738;45.772;4.804;2022-12-07T04:18:11;99831.69;;;5.34
74321;BMP280;62738;45.772;4.804;2022-12-07T04:20:37;99825.94;;;5.19
74321;BMP280;62738;45.772;4.804;2022-12-07T04:23:04;99828.06;;;5.07
74321;BMP280;62738;45.772;4.804;2022-12-07T04:25:31;99822.25;;;5.11
74321;BMP280;62738;45.772;4.804;2022-12-07T04:27:57;99828.06;;;5.26
74321;BMP280;62738;45.772;4.804;2022-12-07T04:30:24;99824.72;;;5.14
74321;BMP280;62738;45.772;4.804;2022-12-07T04:32:50;99823.59;;;5.23
74321;BMP280;62738;45.772;4.804;2022-12-07T04:35:17;99828.72;;;5.32
74321;BMP280;62738;45.772;4.804;2022-12-07T04:37:43;99836.47;;;5.15
74321;BMP280;62738;45.772;4.804;2022-12-07T04:40:10;99844.84;;;5.04
74321;BMP280;62738;45.772;4.804;2022-12-07T04:42:37;99831.34;;;5.06
74321;BMP280;62738;45.772;4.804;2022-12-07T04:45:04;99832.88;;;5.01
74321;BMP280;62738;45.772;4.804;2022-12-07T04:47:31;99832.22;;;5.14
74321;BMP280;62738;45.772;4.804;2022-12-07T04:49:58;99830.59;;;5.05
74321;BMP280;62738;45.772;4.804;2022-12-07T04:52:25;99828.00;;;5.13
74321;BMP280;62738;45.772;4.804;2022-12-07T04:54:51;99832.72;;;4.93
74321;BMP280;62738;45.772;4.804;2022-12-07T04:57:18;99828.19;;;4.77
74321;BMP280;62738;45.772;4.804;2022-12-07T04:59:44;99824.25;;;4.73
74321;BMP280;62738;45.772;4.804;2022-12-07T05:02:11;99828.53;;;4.68
74321;BMP280;62738;45.772;4.804;2022-12-07T05:04:38;99826.19;;;4.97
74321;BMP280;62738;45.772;4.804;2022-12-07T05:07:05;99824.06;;;5.08
74321;BMP280;62738;45.772;4.804;2022-12-07T05:09:31;99823.09;;;4.87
74321;BMP280;62738;45.772;4.804;2022-12-07T05:11:58;99819.28;;;4.90
74321;BMP280;62738;45.772;4.804;2022-12-07T05:14:24;99818.94;;;4.75
74321;BMP280;62738;45.772;4.804;2022-12-07T05:16:51;99822.69;;;4.77
74321;BMP280;62738;45.772;4.804;2022-12-07T05:19:19;99816.41;;;5.01
74321;BMP280;62738;45.772;4.804;2022-12-07T05:21:46;99815.91;;;4.78
74321;BMP280;62738;45.772;4.804;2022-12-07T05:24:15;99810.16;;;4.82
74321;BMP280;62738;45.772;4.804;2022-12-07T05:26:42;99807.69;;;4.78
74321;BMP280;62738;45.772;4.804;2022-12-07T05:29:12;99802.88;;;4.84
74321;BMP280;62738;45.772;4.804;2022-12-07T05:31:39;99806.88;;;4.83
74321;BMP280;62738;45.772;4.804;2022-12-07T05:34:06;99809.25;;;4.74
74321;BMP280;62738;45.772;4.804;2022-12-07T05:36:33;99806.94;;;4.97
74321;BMP280;62738;45.772;4.804;2022-12-07T05:39:00;99803.63;;;5.04
74321;BMP280;62738;45.772;4.804;2022-12-07T05:41:26;99798.78;;;4.91
74321;BMP280;62738;45.772;4.804;2022-12-07T05:44:12;99802.81;;;5.09
74321;BMP280;62738;45.772;4.804;2022-12-07T05:46:38;99796.25;;;5.12
74321;BMP280;62738;45.772;4.804;2022-12-07T05:49:05;99804.28;;;5.10
74321;BMP280;62738;45.772;4.804;2022-12-07T05:51:32;99800.34;;;5.05
74321;BMP280;62738;45.772;4.804;2022-12-07T05:53:58;99806.59;;;4.87
74321;BMP280;62738;45.772;4.804;2022-12-07T05:56:25;99810.44;;;4.78
74321;BMP280;62738;45.772;4.804;2022-12-07T05:58:53;99794.53;;;4.71
74321;BMP280;62738;45.772;4.804;2022-12-07T06:01:39;99793.72;;;4.76
74321;BMP280;62738;45.772;4.804;2022-12-07T06:04:06;99799.91;;;4.82
74321;BMP280;62738;45.772;4.804;2022-12-07T06:06:33;99800.03;;;4.71
74321;BMP280;62738;45.772;4.804;2022-12-07T06:08:59;99806.03;;;4.70
74321;BMP280;62738;45.772;4.804;2022-12-07T06:11:26;99807.00;;;4.72
74321;BMP280;62738;45.772;4.804;2022-12-07T06:14:11;99794.41;;;4.82
74321;BMP280;62738;45.772;4.804;2022-12-07T06:16:38;99790.97;;;4.95
74321;BMP280;62738;45.772;4.804;2022-12-07T06:19:05;99796.91;;;4.80
74321;BMP280;62738;45.772;4.804;2022-12-07T06:21:31;99789.47;;;4.75
74321;BMP280;62738;45.772;4.804;2022-12-07T06:23:58;99798.41;;;4.81
74321;BMP280;62738;45.772;4.804;2022-12-07T06:26:24;99801.94;;;4.76
74321;BMP280;62738;45.772;4.804;2022-12-07T06:28:51;99790.81;;;4.69
74321;BMP280;62738;45.772;4.804;2022-12-07T06:31:18;99795.19;;;4.77
74321;BMP280;62738;45.772;4.804;2022-12-07T06:33:44;99803.44;;;4.96
74321;BMP280;62738;45.772;4.804;2022-12-07T06:36:11;99790.53;;;5.10
74321;BMP280;62738;45.772;4.804;2022-12-07T06:38:38;99793.06;;;5.08
74321;BMP280;62738;45.772;4.804;2022-12-07T06:41:05;99798.44;;;5.19
74321;BMP280;62738;45.772;4.804;2022-12-07T06:43:32;99796.19;;;5.17
74321;BMP280;62738;45.772;4.804;2022-12-07T06:45:59;99785.47;;;5.14
74321;BMP280;62738;45.772;4.804;2022-12-07T06:48:26;99789.63;;;5.39
74321;BMP280;62738;45.772;4.804;2022-12-07T06:50:52;99794.63;;;5.22
74321;BMP280;62738;45.772;4.804;2022-12-07T06:53:21;99795.09;;;5.07
74321;BMP280;62738;45.772;4.804;2022-12-07T06:55:48;99795.44;;;4.79
74321;BMP280;62738;45.772;4.804;2022-12-07T06:58:15;99800.34;;;4.86
74321;BMP280;62738;45.772;4.804;2022-12-07T07:00:43;99795.50;;;5.11
74321;BMP280;62738;45.772;4.804;2022-12-07T07:03:09;99798.50;;;5.13
74321;BMP280;62738;45.772;4.804;2022-12-07T07:05:36;99793.66;;;5.19
74321;BMP280;62738;45.772;4.804;2022-12-07T07:08:03;99793.78;;;5.27
74321;BMP280;62738;45.772;4.804;2022-12-07T07:10:47;99796.75;;;5.29
74321;BMP280;62738;45.772;4.804;2022-12-07T07:13:14;99805.13;;;5.05
74321;BMP280;62738;45.772;4.804;2022-12-07T07:15:40;99802.94;;;4.98
74321;BMP280;62738;45.772;4.804;2022-12-07T07:18:07;99810.91;;;5.01
74321;BMP280;62738;45.772;4.804;2022-12-07T07:20:34;99810.03;;;4.69
74321;BMP280;62738;45.772;4.804;2022-12-07T07:23:00;99817.13;;;5.02
74321;BMP280;62738;45.772;4.804;2022-12-07T07:25:27;99820.84;;;5.23
74321;BMP280;62738;45.772;4.804;2022-12-07T07:27:54;99821.81;;;5.25
74321;BMP280;62738;45.772;4.804;2022-12-07T07:30:21;99822.63;;;4.83
74321;BMP280;62738;45.772;4.804;2022-12-07T07:32:47;99834.19;;;4.76
74321;BMP280;62738;45.772;4.804;2022-12-07T07:35:14;99824.47;;;4.93
74321;BMP280;62738;45.772;4.804;2022-12-07T07:37:41;99821.16;;;5.19
74321;BMP280;62738;45.772;4.804;2022-12-07T07:40:09;99829.94;;;5.18
74321;BMP280;62738;45.772;4.804;2022-12-07T07:42:36;99832.28;;;5.27
74321;BMP280;62738;45.772;4.804;2022-12-07T07:45:02;99836.53;;;5.09
74321;BMP280;62738;45.772;4.804;2022-12-07T07:47:29;99828.38;;;5.04
74321;BMP280;62738;45.772;4.804;2022-12-07T07:49:56;99835.22;;;5.16
74321;BMP280;62738;45.772;4.804;2022-12-07T07:52:23;99841.38;;;5.22
74321;BMP280;62738;45.772;4.804;2022-12-07T07:54:49;99840.94;;;5.18
74321;BMP280;62738;45.772;4.804;2022-12-07T07:57:17;99838.84;;;5.05
74321;BMP280;62738;45.772;4.804;2022-12-07T07:59:43;99842.84;;;5.04
74321;BMP280;62738;45.772;4.804;2022-12-07T08:02:15;99847.94;;;4.94
74321;BMP280;62738;45.772;4.804;2022-12-07T08:04:43;99840.59;;;4.84
74321;BMP280;62738;45.772;4.804;2022-12-07T08:07:10;99846.34;;;5.05
74321;BMP280;62738;45.772;4.804;2022-12-07T08:09:37;99842.97;;;4.93
74321;BMP280;62738;45.772;4.804;2022-12-07T08:12:04;99846.69;;;4.96
74321;BMP280;62738;45.772;4.804;2022-12-07T08:14:31;99840.34;;;5.06
74321;BMP280;62738;45.772;4.804;2022-12-07T08:16:57;99849.84;;;5.05
74321;BMP280;62738;45.772;4.804;2022-12-07T08:19:24;99842.22;;;4.74
74321;BMP280;62738;45.772;4.804;2022-12-07T08:21:51;99841.66;;;5.00
74321;BMP280;62738;45.772;4.804;2022-12-07T08:24:17;99848.03;;;5.26
74321;BMP280;62738;45.772;4.804;2022-12-07T08:26:44;99847.47;;;5.15
74321;BMP280;62738;45.772;4.804;2022-12-07T08:29:11;99852.22;;;5.33
74321;BMP280;62738;45.772;4.804;2022-12-07T08:31:37;99846.38;;;5.42
74321;BMP280;62738;45.772;4.804;2022-12-07T08:34:04;99842.34;;;5.24
74321;BMP280;62738;45.772;4.804;2022-12-07T08:36:31;99842.44;;;5.19
74321;BMP280;62738;45.772;4.804;2022-12-07T08:38:57;99842.94;;;5.36
74321;BMP280;62738;45.772;4.804;2022-12-07T08:41:44;99843.66;;;5.55
74321;BMP280;62738;45.772;4.804;2022-12-07T08:44:10;99836.56;;;5.60
74321;BMP280;62738;45.772;4.804;2022-12-07T08:46:41;99842.25;;;5.30
74321;BMP280;62738;45.772;4.804;2022-12-07T08:49:16;99847.94;;;5.19
74321;BMP280;62738;45.772;4.804;2022-12-07T08:51:44;99850.50;;;5.30
74321;BMP280;62738;45.772;4.804;2022-12-07T08:54:14;99848.22;;;5.34
74321;BMP280;62738;45.772;4.804;2022-12-07T08:56:43;99837.38;;;5.42
74321;BMP280;62738;45.772;4.804;2022-12-07T08:59:13;99842.16;;;5.54
74321;BMP280;62738;45.772;4.804;2022-12-07T09:01:41;99847.00;;;5.48
74321;BMP280;62738;45.772;4.804;2022-12-07T09:04:08;99839.13;;;5.20
74321;BMP280;62738;45.772;4.804;2022-12-07T09:06:34;99847.97;;;5.32
74321;BMP280;62738;45.772;4.804;2022-12-07T09:09:02;99850.72;;;5.32
74321;BMP280;62738;45.772;4.804;2022-12-07T09:11:29;99848.66;;;5.38
74321;BMP280;62738;45.772;4.804;2022-12-07T09:13:56;99844.63;;;5.20
74321;BMP280;62738;45.772;4.804;2022-12-07T09:16:23;99849.47;;;5.33
74321;BMP280;62738;45.772;4.804;2022-12-07T09:18:49;99852.28;;;5.46
74321;BMP280;62738;45.772;4.804;2022-12-07T09:21:16;99848.78;;;5.27
74321;BMP280;62738;45.772;4.804;2022-12-07T09:23:43;99856.31;;;5.45
74321;BMP280;62738;45.772;4.804;2022-12-07T09:26:09;99853.41;;;5.38
74321;BMP280;62738;45.772;4.804;2022-12-07T09:28:37;99853.13;;;5.41
74321;BMP280;62738;45.772;4.804;2022-12-07T09:31:04;99854.53;;;5.48
74321;BMP280;62738;45.772;4.804;2022-12-07T09:33:58;99851.28;;;5.62
74321;BMP280;62738;45.772;4.804;2022-12-07T09:36:26;99857.84;;;5.59
74321;BMP280;62738;45.772;4.804;2022-12-07T09:38:54;99856.44;;;5.72
74321;BMP280;62738;45.772;4.804;2022-12-07T09:41:22;99856.50;;;5.66
74321;BMP280;62738;45.772;4.804;2022-12-07T09:43:50;99862.31;;;5.62
74321;BMP280;62738;45.772;4.804;2022-12-07T09:46:19;99861.72;;;5.70
74321;BMP280;62738;45.772;4.804;2022-12-07T09:48:47;99872.59;;;5.43
74321;BMP280;62738;45.772;4.804;2022-12-07T09:51:19;99867.81;;;5.62
74321;BMP280;62738;45.772;4.804;2022-12-07T09:53:51;99861.50;;;5.68
74321;BMP280;62738;45.772;4.804;2022-12-07T09:56:19;99867.91;;;5.89
74321;BMP280;62738;45.772;4.804;2022-12-07T09:58:46;99863.28;;;5.97
74321;BMP280;62738;45.772;4.804;2022-12-07T10:01:21;99866.09;;;5.78
74321;BMP280;62738;45.772;4.804;2022-12-07T10:03:54;99871.25;;;5.69
74321;BMP280;62738;45.772;4.804;2022-12-07T10:06:23;99866.00;;;5.84
74321;BMP280;62738;45.772;4.804;2022-12-07T10:08:50;99856.63;;;5.74
74321;BMP280;62738;45.772;4.804;2022-12-07T10:11:16;99848.44;;;5.87
74321;BMP280;62738;45.772;4.804;2022-12-07T10:13:48;99853.66;;;6.03
74321;BMP280;62738;45.772;4.804;2022-12-07T10:18:51;99842.69;;;5.72
74321;BMP280;62738;45.772;4.804;2022-12-07T10:21:26;99839.28;;;6.11
74321;BMP280;62738;45.772;4.804;2022-12-07T10:29:02;99826.44;;;6.13
74321;BMP280;62738;45.772;4.804;2022-12-07T10:31:30;99829.69;;;5.85
74321;BMP280;62738;45.772;4.804;2022-12-07T10:33:59;99821.97;;;5.97
74321;BMP280;62738;45.772;4.804;2022-12-07T10:36:46;99817.56;;;6.07
74321;BMP280;62738;45.772;4.804;2022-12-07T10:39:21;99811.75;;;6.11
74321;BMP280;62738;45.772;4.804;2022-12-07T10:44:28;99810.78;;;6.21
74321;BMP280;62738;45.772;4.804;2022-12-07T10:47:14;99809.41;;;6.01
74321;BMP280;62738;45.772;4.804;2022-12-07T10:50:14;99801.22;;;5.96
74321;BMP280;62738;45.772;4.804;2022-12-07T10:56:17;99796.78;;;6.19
74321;BMP280;62738;45.772;4.804;2022-12-07T11:01:43;99785.97;;;5.95
74321;BMP280;62738;45.772;4.804;2022-12-07T11:04:35;99779.50;;;5.92
74321;BMP280;62738;45.772;4.804;2022-12-07T11:10:16;99775.25;;;5.91
74321;BMP280;62738;45.772;4.804;2022-12-07T11:18:32;99767.97;;;6.20
74321;BMP280;62738;45.772;4.804;2022-12-07T11:34:39;99755.44;;;6.46
74321;BMP280;62738;45.772;4.804;2022-12-07T11:37:21;99758.56;;;6.16
74321;BMP280;62738;45.772;4.804;2022-12-07T11:39:55;99764.06;;;6.16
74321;BMP280;62738;45.772;4.804;2022-12-07T11:42:26;99762.25;;;6.18
74321;BMP280;62738;45.772;4.804;2022-12-07T11:45:00;99759.28;;;6.16
74321;BMP280;62738;45.772;4.804;2022-12-07T11:47:47;99757.09;;;6.41
74321;BMP280;62738;45.772;4.804;2022-12-07T11:52:58;99755.69;;;6.34
74321;BMP280;62738;45.772;4.804;2022-12-07T11:55:37;99757.38;;;6.11
74321;BMP280;62738;45.772;4.804;2022-12-07T12:00:50;99748.06;;;6.40
74321;BMP280;62738;45.772;4.804;2022-12-07T12:03:30;99748.59;;;6.26
74321;BMP280;62738;45.772;4.804;2022-12-07T12:06:00;99744.78;;;6.29
74321;BMP280;62738;45.772;4.804;2022-12-07T12:08:38;99747.94;;;6.20
74321;BMP280;62738;45.772;4.804;2022-12-07T12:15:07;99739.03;;;6.53
74321;BMP280;62738;45.772;4.804;2022-12-07T12:17:54;99742.63;;;6.48
74321;BMP280;62738;45.772;4.804;2022-12-07T12:20:30;99747.00;;;6.30
74321;BMP280;62738;45.772;4.804;2022-12-07T12:25:42;99740.00;;;6.43
74321;BMP280;62738;45.772;4.804;2022-12-07T12:28:39;99735.75;;;6.55
74321;BMP280;62738;45.772;4.804;2022-12-07T12:31:31;99739.47;;;6.31
74321;BMP280;62738;45.772;4.804;2022-12-07T12:34:00;99741.91;;;6.21
74321;BMP280;62738;45.772;4.804;2022-12-07T12:44:02;99713.13;;;6.09
74321;BMP280;62738;45.772;4.804;2022-12-07T12:55:19;99712.03;;;6.38
74321;BMP280;62738;45.772;4.804;2022-12-07T13:00:47;99696.84;;;6.45
74321;BMP280;62738;45.772;4.804;2022-12-07T13:03:45;99693.13;;;6.56
74321;BMP280;62738;45.772;4.804;2022-12-07T13:06:19;99691.22;;;6.51
74321;BMP280;62738;45.772;4.804;2022-12-07T13:08:46;99697.41;;;6.17
74321;BMP280;62738;45.772;4.804;2022-12-07T13:11:34;99694.47;;;6.28
74321;BMP280;62738;45.772;4.804;2022-12-07T13:14:56;99690.22;;;6.40
74321;BMP280;62738;45.772;4.804;2022-12-07T13:20:05;99683.59;;;6.44
74321;BMP280;62738;45.772;4.804;2022-12-07T13:22:41;99677.88;;;6.41
74321;BMP280;62738;45.772;4.804;2022-12-07T13:25:18;99682.31;;;6.45
74321;BMP280;62738;45.772;4.804;2022-12-07T13:27:58;99678.44;;;6.40
74321;BMP280;62738;45.772;4.804;2022-12-07T13:30:28;99683.28;;;6.47
74321;BMP280;62738;45.772;4.804;2022-12-07T13:32:58;99669.75;;;6.23
74321;BMP280;62738;45.772;4.804;2022-12-07T13:35:36;99666.25;;;6.35
74321;BMP280;62738;45.772;4.804;2022-12-07T13:38:13;99667.66;;;6.29
74321;BMP280;62738;45.772;4.804;2022-12-07T13:40:41;99659.16;;;6.27
74321;BMP280;62738;45.772;4.804;2022-12-07T13:43:15;99666.47;;;6.11
74321;BMP280;62738;45.772;4.804;2022-12-07T13:45:43;99659.09;;;6.06
74321;BMP280;62738;45.772;4.804;2022-12-07T13:48:24;99666.38;;;6.17
74321;BMP280;62738;45.772;4.804;2022-12-07T13:50:56;99662.00;;;6.34
74321;BMP280;62738;45.772;4.804;2022-12-07T13:53:23;99669.44;;;6.39
74321;BMP280;62738;45.772;4.804;2022-12-07T13:55:50;99659.56;;;6.31
74321;BMP280;62738;45.772;4.804;2022-12-07T13:58:20;99667.44;;;6.27
74321;BMP280;62738;45.772;4.804;2022-12-07T14:00:47;99663.50;;;6.22
74321;BMP280;62738;45.772;4.804;2022-12-07T14:05:42;99657.38;;;6.03
74321;BMP280;62738;45.772;4.804;2022-12-07T14:10:42;99665.09;;;6.18
74321;BMP280;62738;45.772;4.804;2022-12-07T14:13:35;99654.38;;;6.40
74321;BMP280;62738;45.772;4.804;2022-12-07T14:16:28;99656.06;;;6.30
74321;BMP280;62738;45.772;4.804;2022-12-07T14:18:56;99656.59;;;6.42
74321;BMP280;62738;45.772;4.804;2022-12-07T14:21:26;99654.56;;;6.43
74321;BMP280;62738;45.772;4.804;2022-12-07T14:24:09;99655.41;;;6.51
74321;BMP280;62738;45.772;4.804;2022-12-07T14:26:38;99654.94;;;6.60
74321;BMP280;62738;45.772;4.804;2022-12-07T14:31:49;99658.72;;;6.36
74321;BMP280;62738;45.772;4.804;2022-12-07T14:34:15;99654.56;;;6.43
74321;BMP280;62738;45.772;4.804;2022-12-07T14:36:42;99656.31;;;6.19
74321;BMP280;62738;45.772;4.804;2022-12-07T14:39:08;99664.03;;;6.34
74321;BMP280;62738;45.772;4.804;2022-12-07T14:41:39;99655.50;;;6.45
74321;BMP280;62738;45.772;4.804;2022-12-07T14:44:24;99658.81;;;6.44
74321;BMP280;62738;45.772;4.804;2022-12-07T14:46:59;99654.97;;;6.47
74321;BMP280;62738;45.772;4.804;2022-12-07T14:49:46;99648.81;;;6.54
74321;BMP280;62738;45.772;4.804;2022-12-07T14:52:21;99651.44;;;6.59
74321;BMP280;62738;45.772;4.804;2022-12-07T14:55:14;99649.22;;;6.58
74321;BMP280;62738;45.772;4.804;2022-12-07T14:57:41;99650.28;;;6.68
74321;BMP280;62738;45.772;4.804;2022-12-07T15:00:09;99640.72;;;6.69
74321;BMP280;62738;45.772;4.804;2022-12-07T15:02:39;99640.09;;;6.63
74321;BMP280;62738;45.772;4.804;2022-12-07T15:05:06;99642.78;;;6.55
74321;BMP280;62738;45.772;4.804;2022-12-07T15:07:41;99642.03;;;6.55
74321;BMP280;62738;45.772;4.804;2022-12-07T15:10:29;99643.84;;;6.52
74321;BMP280;62738;45.772;4.804;2022-12-07T15:13:02;99637.06;;;6.74
74321;BMP280;62738;45.772;4.804;2022-12-07T15:15:48;99636.31;;;6.73
74321;BMP280;62738;45.772;4.804;2022-12-07T15:18:16;99634.19;;;6.46
74321;BMP280;62738;45.772;4.804;2022-12-07T15:20:43;99627.81;;;6.30
74321;BMP280;62738;45.772;4.804;2022-12-07T15:23:11;99634.25;;;6.32
74321;BMP280;62738;45.772;4.804;2022-12-07T15:25:45;99625.06;;;6.30
74321;BMP280;62738;45.772;4.804;2022-12-07T15:28:13;99628.53;;;6.17
74321;BMP280;62738;45.772;4.804;2022-12-07T15:30:42;99628.00;;;6.32
74321;BMP280;62738;45.772;4.804;2022-12-07T15:33:12;99618.00;;;6.42
74321;BMP280;62738;45.772;4.804;2022-12-07T15:35:43;99620.25;;;6.44
74321;BMP280;62738;45.772;4.804;2022-12-07T15:38:11;99601.75;;;6.72
74321;BMP280;62738;45.772;4.804;2022-12-07T15:40:37;99614.72;;;6.44
74321;BMP280;62738;45.772;4.804;2022-12-07T15:43:04;99610.00;;;6.65
74321;BMP280;62738;45.772;4.804;2022-12-07T15:45:31;99617.03;;;6.53
74321;BMP280;62738;45.772;4.804;2022-12-07T15:47:57;99619.31;;;6.41
74321;BMP280;62738;45.772;4.804;2022-12-07T15:50:44;99617.66;;;6.46
74321;BMP280;62738;45.772;4.804;2022-12-07T15:53:11;99624.88;;;6.49
74321;BMP280;62738;45.772;4.804;2022-12-07T15:55:40;99629.69;;;6.69
74321;BMP280;62738;45.772;4.804;2022-12-07T15:58:07;99633.84;;;6.62
74321;BMP280;62738;45.772;4.804;2022-12-07T16:00:34;99631.00;;;6.55
74321;BMP280;62738;45.772;4.804;2022-12-07T16:03:00;99621.16;;;6.46
74321;BMP280;62738;45.772;4.804;2022-12-07T16:05:28;99618.56;;;6.40
74321;BMP280;62738;45.772;4.804;2022-12-07T16:07:55;99622.59;;;6.39
74321;BMP280;62738;45.772;4.804;2022-12-07T16:10:21;99616.34;;;6.60
74321;BMP280;62738;45.772;4.804;2022-12-07T16:12:48;99616.59;;;6.49
74321;BMP280;62738;45.772;4.804;2022-12-07T16:15:15;99610.63;;;6.58
74321;BMP280;62738;45.772;4.804;2022-12-07T16:17:48;99613.53;;;6.52
74321;BMP280;62738;45.772;4.804;2022-12-07T16:20:14;99614.00;;;6.64
74321;BMP280;62738;45.772;4.804;2022-12-07T16:22:41;99614.59;;;6.49
74321;BMP280;62738;45.772;4.804;2022-12-07T16:25:08;99609.97;;;6.86
74321;BMP280;62738;45.772;4.804;2022-12-07T16:27:34;99608.19;;;6.67
74321;BMP280;62738;45.772;4.804;2022-12-07T16:30:01;99598.72;;;6.42
74321;BMP280;62738;45.772;4.804;2022-12-07T16:32:28;99596.88;;;6.45
74321;BMP280;62738;45.772;4.804;2022-12-07T16:34:54;99601.81;;;6.38
74321;BMP280;62738;45.772;4.804;2022-12-07T16:37:21;99605.31;;;6.60
74321;BMP280;62738;45.772;4.804;2022-12-07T16:39:47;99597.56;;;6.71